createdAt,value
2018-03-19T00:00:45.387Z,0.69
2018-03-19T00:03:13.655Z,1.05
2018-03-19T00:05:42.222Z,1.27
2018-03-19T00:08:10.487Z,1.20
2018-03-19T00:10:38.742Z,1.32
2018-03-19T00:13:07.020Z,0.91
2018-03-19T00:15:35.295Z,1.26
2018-03-19T00:18:03.560Z,0.84
2018-03-19T00:20:31.819Z,1.14
2018-03-19T00:23:00.353Z,1.12
2018-03-19T00:25:28.611Z,1.12
2018-03-19T00:27:56.891Z,1.37
2018-03-19T00:30:25.168Z,1.39
2018-03-19T00:32:53.434Z,1.32
2018-03-19T00:35:21.723Z,1.22
2018-03-19T00:37:50.035Z,1.51
2018-03-19T00:40:18.311Z,1.68
2018-03-19T00:42:46.580Z,1.81
2018-03-19T00:45:14.852Z,1.81
2018-03-19T00:47:43.115Z,1.55
2018-03-19T00:50:11.385Z,1.42
2018-03-19T00:52:39.658Z,1.33
2018-03-19T00:55:07.926Z,1.34
2018-03-19T00:57:36.195Z,1.16
2018-03-19T01:00:04.622Z,1.25
2018-03-19T01:02:37.272Z,1.28
2018-03-19T01:05:05.535Z,1.55
2018-03-19T01:07:33.820Z,1.22
2018-03-19T01:10:02.063Z,0.95
2018-03-19T01:12:30.335Z,0.76
2018-03-19T01:15:02.978Z,0.81
2018-03-19T01:17:31.259Z,0.55
2018-03-19T01:19:59.531Z,0.61
2018-03-19T01:22:27.799Z,0.59
2018-03-19T01:24:56.075Z,0.49
2018-03-19T01:27:24.364Z,0.51
2018-03-19T01:29:52.634Z,0.44
2018-03-19T01:32:20.908Z,0.32
2018-03-19T01:34:49.180Z,0.36
2018-03-19T01:37:17.779Z,0.38
2018-03-19T01:39:46.046Z,0.36
2018-03-19T01:42:14.319Z,0.35
2018-03-19T01:44:42.590Z,1.04
2018-03-19T01:47:10.859Z,0.56
2018-03-19T01:49:39.138Z,0.58
2018-03-19T01:52:07.494Z,0.67
2018-03-19T01:54:36.040Z,0.43
2018-03-19T01:57:04.314Z,0.28
2018-03-19T01:59:32.573Z,0.35
2018-03-19T02:02:00.844Z,0.67
2018-03-19T02:04:29.124Z,0.55
2018-03-19T02:06:57.395Z,0.53
2018-03-19T02:09:25.698Z,0.82
2018-03-19T02:11:53.945Z,0.85
2018-03-19T02:14:22.231Z,0.72
2018-03-19T02:16:50.494Z,0.75
2018-03-19T02:19:18.791Z,0.92
2018-03-19T02:21:47.048Z,1.03
2018-03-19T02:24:15.338Z,1.35
2018-03-19T02:26:43.598Z,1.30
2018-03-19T02:29:11.876Z,0.99
2018-03-19T02:31:40.138Z,0.69
2018-03-19T02:34:08.416Z,0.47
2018-03-19T02:36:36.695Z,0.32
2018-03-19T02:39:04.955Z,0.21
2018-03-19T02:41:33.985Z,0.07
2018-03-19T02:44:02.239Z,0.27
2018-03-19T02:46:30.537Z,0.23
2018-03-19T02:48:58.791Z,0.41
2018-03-19T02:51:27.059Z,-0.04
2018-03-19T02:53:55.351Z,0.21
2018-03-19T02:56:23.633Z,0.30
2018-03-19T02:58:51.913Z,0.50
2018-03-19T03:01:20.176Z,0.64
2018-03-19T03:03:48.446Z,0.71
2018-03-19T03:06:16.714Z,0.58
2018-03-19T03:08:44.996Z,0.63
2018-03-19T03:11:13.263Z,0.85
2018-03-19T03:13:41.541Z,0.67
2018-03-19T03:16:09.818Z,0.75
2018-03-19T03:18:38.086Z,0.78
2018-03-19T03:21:06.370Z,0.87
2018-03-19T03:23:34.634Z,0.91
2018-03-19T03:26:02.923Z,0.56
2018-03-19T03:28:31.202Z,0.95
2018-03-19T03:30:59.482Z,0.67
2018-03-19T03:33:27.786Z,0.79
2018-03-19T03:35:56.046Z,0.63
2018-03-19T03:38:24.326Z,0.26
2018-03-19T03:40:52.595Z,0.66
2018-03-19T03:43:20.861Z,0.52
2018-03-19T03:45:49.139Z,0.64
2018-03-19T03:48:17.418Z,0.94
2018-03-19T03:50:45.927Z,0.78
2018-03-19T03:53:14.203Z,0.29
2018-03-19T03:55:42.473Z,0.70
2018-03-19T03:58:10.735Z,0.85
2018-03-19T04:00:39.003Z,0.48
2018-03-19T04:03:07.271Z,0.35
2018-03-19T04:05:35.537Z,0.08
2018-03-19T04:08:03.823Z,0.24
2018-03-19T04:10:32.102Z,0.10
2018-03-19T04:13:00.372Z,0.12
2018-03-19T04:15:28.651Z,0.20
2018-03-19T04:17:56.925Z,0.23
2018-03-19T04:20:25.207Z,0.36
2018-03-19T04:22:53.482Z,0.49
2018-03-19T04:25:21.763Z,0.16
2018-03-19T04:27:50.033Z,0.58
2018-03-19T04:30:18.370Z,0.53
2018-03-19T04:32:46.635Z,0.58
2018-03-19T04:35:14.902Z,0.24
2018-03-19T04:37:43.172Z,0.00
2018-03-19T04:40:11.459Z,0.14
2018-03-19T04:42:39.734Z,-0.09
2018-03-19T04:45:07.991Z,0.10
2018-03-19T04:47:36.268Z,-0.32
2018-03-19T04:50:04.535Z,-0.15
2018-03-19T04:52:32.837Z,0.16
2018-03-19T04:55:01.118Z,-0.03
2018-03-19T04:57:29.391Z,-0.04
2018-03-19T04:59:58.607Z,-0.06
2018-03-19T05:02:26.870Z,0.16
2018-03-19T05:04:55.146Z,0.07
2018-03-19T05:07:23.432Z,-0.20
2018-03-19T05:09:51.695Z,0.27
2018-03-19T05:12:19.984Z,-0.20
2018-03-19T05:14:48.252Z,0.05
2018-03-19T05:17:16.529Z,0.13
2018-03-19T05:19:44.799Z,-0.05
2018-03-19T05:22:13.071Z,-0.06
2018-03-19T05:24:41.350Z,0.40
2018-03-19T05:27:09.624Z,0.29
2018-03-19T05:29:37.902Z,0.10
2018-03-19T05:32:06.167Z,0.50
2018-03-19T05:34:34.431Z,0.30
2018-03-19T05:37:02.703Z,0.45
2018-03-19T05:39:30.966Z,0.51
2018-03-19T05:41:59.248Z,0.60
2018-03-19T05:44:27.519Z,0.73
2018-03-19T05:46:55.794Z,0.39
2018-03-19T05:49:24.071Z,0.31
2018-03-19T05:51:59.005Z,0.10
2018-03-19T05:54:27.308Z,0.43
2018-03-19T05:56:55.577Z,0.64
2018-03-19T05:59:23.841Z,0.20
2018-03-19T06:01:52.119Z,0.56
2018-03-19T06:04:37.753Z,0.52
2018-03-19T06:07:06.119Z,0.38
2018-03-19T06:09:34.360Z,0.07
2018-03-19T06:12:02.617Z,0.19
2018-03-19T06:14:30.902Z,0.55
2018-03-19T06:16:59.170Z,0.18
2018-03-19T06:19:27.486Z,0.74
2018-03-19T06:21:55.756Z,0.51
2018-03-19T06:24:24.029Z,0.30
2018-03-19T06:26:52.295Z,0.77
2018-03-19T06:29:20.563Z,0.70
2018-03-19T06:31:48.846Z,0.87
2018-03-19T06:34:17.110Z,0.76
2018-03-19T06:36:45.379Z,0.99
2018-03-19T06:39:13.650Z,1.15
2018-03-19T06:41:41.930Z,1.04
2018-03-19T06:44:10.220Z,0.56
2018-03-19T06:46:38.483Z,0.79
2018-03-19T06:49:06.749Z,0.81
2018-03-19T06:51:35.025Z,0.48
2018-03-19T06:54:03.303Z,0.58
2018-03-19T06:56:48.932Z,0.61
2018-03-19T06:59:17.190Z,1.01
2018-03-19T07:01:45.459Z,0.34
2018-03-19T07:04:13.736Z,0.17
2018-03-19T07:06:42.011Z,0.30
2018-03-19T07:09:10.290Z,-0.21
2018-03-19T07:11:38.567Z,0.02
2018-03-19T07:14:06.844Z,0.32
2018-03-19T07:16:35.118Z,0.59
2018-03-19T07:19:03.386Z,0.62
2018-03-19T07:21:31.669Z,0.59
2018-03-19T07:23:59.939Z,0.08
2018-03-19T07:26:28.210Z,0.30
2018-03-19T07:28:56.484Z,0.40
2018-03-19T07:31:24.754Z,0.61
2018-03-19T07:33:53.101Z,0.75
2018-03-19T07:36:21.315Z,0.60
2018-03-19T07:38:49.588Z,0.56
2018-03-19T07:41:17.864Z,0.79
2018-03-19T07:43:46.144Z,1.16
2018-03-19T07:46:14.434Z,0.50
2018-03-19T07:48:42.719Z,0.96
2018-03-19T07:51:10.991Z,0.92
2018-03-19T07:53:39.282Z,1.25
2018-03-19T07:56:07.554Z,1.14
2018-03-19T07:58:35.839Z,1.15
2018-03-19T08:01:06.083Z,1.13
2018-03-19T08:03:34.356Z,1.60
2018-03-19T08:06:02.627Z,1.21
2018-03-19T08:08:30.894Z,1.62
2018-03-19T08:10:59.177Z,1.59
2018-03-19T08:13:27.439Z,1.34
2018-03-19T08:15:55.710Z,1.63
2018-03-19T08:18:23.982Z,1.59
2018-03-19T08:20:52.251Z,2.11
2018-03-19T08:23:20.525Z,1.79
2018-03-19T08:25:48.790Z,1.72
2018-03-19T08:28:17.102Z,1.71
2018-03-19T08:30:45.374Z,1.87
2018-03-19T08:33:13.640Z,1.79
2018-03-19T08:35:41.924Z,2.27
2018-03-19T08:38:10.182Z,1.76
2018-03-19T08:40:38.472Z,1.71
2018-03-19T08:43:06.746Z,1.18
2018-03-19T08:45:35.015Z,1.57
2018-03-19T08:48:03.291Z,1.73
2018-03-19T08:50:33.501Z,1.65
2018-03-19T08:53:01.784Z,1.81
2018-03-19T08:55:30.056Z,2.18
2018-03-19T08:58:04.711Z,2.18
2018-03-19T09:00:37.005Z,1.78
2018-03-19T09:03:05.284Z,1.57
2018-03-19T09:05:33.547Z,1.91
2018-03-19T09:08:01.818Z,2.08
2018-03-19T09:10:30.095Z,1.58
2018-03-19T09:12:58.357Z,1.79
2018-03-19T09:15:26.638Z,1.51
2018-03-19T09:17:54.901Z,1.72
2018-03-19T09:20:23.166Z,1.81
2018-03-19T09:22:51.474Z,1.86
2018-03-19T09:25:19.735Z,1.66
2018-03-19T09:27:48.017Z,2.00
2018-03-19T09:30:16.278Z,2.42
2018-03-19T09:32:44.560Z,2.10
2018-03-19T09:35:12.840Z,2.42
2018-03-19T09:37:41.131Z,2.32
2018-03-19T09:40:09.627Z,2.02
2018-03-19T09:42:37.956Z,2.77
2018-03-19T09:45:06.175Z,2.16
2018-03-19T09:47:34.438Z,2.46
2018-03-19T09:50:02.728Z,2.29
2018-03-19T09:52:31.010Z,2.41
2018-03-19T09:54:59.276Z,2.33
2018-03-19T09:57:27.557Z,2.27
2018-03-19T09:59:55.833Z,2.66
2018-03-19T10:02:24.103Z,2.53
2018-03-19T10:04:53.354Z,2.47
2018-03-19T10:10:22.994Z,2.35
2018-03-19T10:12:51.268Z,2.62
2018-03-19T10:15:19.538Z,2.46
2018-03-19T10:17:47.804Z,2.32
2018-03-19T10:20:16.130Z,2.81
2018-03-19T10:22:44.378Z,2.52
2018-03-19T10:25:12.644Z,2.22
2018-03-19T10:27:40.915Z,2.71
2018-03-19T10:30:09.196Z,3.15
2018-03-19T10:32:37.455Z,2.94
2018-03-19T10:35:05.748Z,3.25
2018-03-19T10:37:34.020Z,3.35
2018-03-19T10:40:02.296Z,2.79
2018-03-19T10:42:30.563Z,3.16
2018-03-19T10:48:00.028Z,3.32
2018-03-19T10:53:29.685Z,3.63
2018-03-19T10:55:57.928Z,3.43
2018-03-19T10:58:26.212Z,4.29
2018-03-19T11:01:05.531Z,4.31
2018-03-19T11:03:33.803Z,3.82
2018-03-19T11:06:08.016Z,3.76
2018-03-19T11:14:35.526Z,4.61
2018-03-19T11:17:04.777Z,4.92
2018-03-19T11:19:46.315Z,3.92
2018-03-19T11:22:20.111Z,4.81
2018-03-19T11:24:48.487Z,4.31
2018-03-19T11:27:16.742Z,4.30
2018-03-19T11:29:45.030Z,4.61
2018-03-19T11:32:13.315Z,4.81
2018-03-19T11:34:41.957Z,5.10
2018-03-19T11:37:10.213Z,5.19
2018-03-19T11:39:38.475Z,4.66
2018-03-19T11:42:12.097Z,4.51
2018-03-19T11:44:40.382Z,4.48
2018-03-19T11:47:08.739Z,5.02
2018-03-19T11:49:48.178Z,5.34
2018-03-19T11:52:16.457Z,4.64
2018-03-19T11:54:54.696Z,4.90
2018-03-19T11:57:41.976Z,4.65
2018-03-19T12:00:10.254Z,5.24
2018-03-19T12:02:39.459Z,5.43
2018-03-19T12:05:07.774Z,5.56
2018-03-19T12:07:38.040Z,5.22
2018-03-19T12:10:06.343Z,4.92
2018-03-19T12:12:34.604Z,5.69
2018-03-19T12:15:02.887Z,6.05
2018-03-19T12:17:31.189Z,6.39
2018-03-19T12:19:59.479Z,6.20
2018-03-19T12:22:27.759Z,5.78
2018-03-19T12:24:56.061Z,5.78
2018-03-19T12:27:24.335Z,6.12
2018-03-19T12:29:52.612Z,5.91
2018-03-19T12:32:20.882Z,5.30
2018-03-19T12:34:49.180Z,5.29
2018-03-19T12:37:17.452Z,5.49
2018-03-19T12:39:47.691Z,6.19
2018-03-19T12:42:15.991Z,5.91
2018-03-19T12:44:44.264Z,5.84
2018-03-19T12:47:17.810Z,6.27
2018-03-19T12:49:46.079Z,6.09
2018-03-19T12:52:14.363Z,6.36
2018-03-19T12:54:42.644Z,6.53
2018-03-19T12:57:10.907Z,6.56
2018-03-19T12:59:40.151Z,7.10
2018-03-19T13:02:08.439Z,6.66
2018-03-19T13:04:36.703Z,6.14
2018-03-19T13:10:06.086Z,6.85
2018-03-19T13:12:34.371Z,6.75
2018-03-19T13:15:02.682Z,6.66
2018-03-19T13:17:30.954Z,6.20
2018-03-19T13:19:59.231Z,6.04
2018-03-19T13:22:27.498Z,6.25
2018-03-19T13:24:55.802Z,6.91
2018-03-19T13:27:24.064Z,6.98
2018-03-19T13:29:52.339Z,6.89
2018-03-19T13:32:20.629Z,6.46
2018-03-19T13:34:48.891Z,7.32
2018-03-19T13:37:17.501Z,7.25
2018-03-19T13:39:45.747Z,7.06
2018-03-19T13:42:14.023Z,7.34
2018-03-19T13:44:42.367Z,7.20
2018-03-19T13:47:29.540Z,7.36
2018-03-19T13:49:57.818Z,7.38
2018-03-19T13:52:43.835Z,7.06
2018-03-19T13:55:15.114Z,7.06
2018-03-19T13:57:43.386Z,7.34
2018-03-19T14:00:11.663Z,7.44
2018-03-19T14:02:48.135Z,7.37
2018-03-19T14:05:16.423Z,6.92
2018-03-19T14:07:44.691Z,7.29
2018-03-19T14:10:12.958Z,7.67
2018-03-19T14:12:41.242Z,7.33
2018-03-19T14:15:09.522Z,7.71
2018-03-19T14:17:37.803Z,7.51
2018-03-19T14:20:06.090Z,7.96
2018-03-19T14:22:34.354Z,7.47
2018-03-19T14:25:02.648Z,7.50
2018-03-19T14:30:29.923Z,7.32
2018-03-19T14:32:58.197Z,7.14
2018-03-19T14:35:26.455Z,7.53
2018-03-19T14:37:54.735Z,7.41
2018-03-19T14:40:23.028Z,7.86
2018-03-19T14:42:51.272Z,7.59
2018-03-19T14:45:19.540Z,7.23
2018-03-19T14:50:45.286Z,7.77
2018-03-19T14:53:13.847Z,7.41
2018-03-19T14:55:42.117Z,7.17
2018-03-19T14:58:10.376Z,6.89
2018-03-19T15:00:38.651Z,7.46
2018-03-19T15:03:08.385Z,7.37
2018-03-19T15:05:36.659Z,7.32
2018-03-19T15:08:04.934Z,7.10
2018-03-19T15:10:33.207Z,7.59
2018-03-19T15:13:01.478Z,7.11
2018-03-19T15:15:37.634Z,7.04
2018-03-19T15:18:05.910Z,7.40
2018-03-19T15:20:34.193Z,7.79
2018-03-19T15:23:02.447Z,7.71
2018-03-19T15:25:30.738Z,7.60
2018-03-19T15:27:59.014Z,7.56
2018-03-19T15:30:27.300Z,7.01
2018-03-19T15:32:55.563Z,7.22
2018-03-19T15:35:23.828Z,7.07
2018-03-19T15:37:52.106Z,7.09
2018-03-19T15:40:20.375Z,7.37
2018-03-19T15:42:48.652Z,7.35
2018-03-19T15:45:16.919Z,7.23
2018-03-19T15:47:45.180Z,6.97
2018-03-19T15:50:13.455Z,7.10
2018-03-19T15:52:41.719Z,7.31
2018-03-19T15:55:09.999Z,7.26
2018-03-19T15:57:38.267Z,7.48
2018-03-19T16:00:06.541Z,7.09
2018-03-19T16:02:36.804Z,7.11
2018-03-19T16:05:05.073Z,6.94
2018-03-19T16:07:33.331Z,7.01
2018-03-19T16:10:01.598Z,6.78
2018-03-19T16:12:29.858Z,6.86
2018-03-19T16:14:58.122Z,6.39
2018-03-19T16:17:26.384Z,6.84
2018-03-19T16:19:54.650Z,7.01
2018-03-19T16:22:22.906Z,6.98
2018-03-19T16:24:51.166Z,7.14
2018-03-19T16:27:19.489Z,7.20
2018-03-19T16:29:47.698Z,7.27
2018-03-19T16:32:15.976Z,6.92
2018-03-19T16:34:44.239Z,6.79
2018-03-19T16:37:12.514Z,6.95
2018-03-19T16:39:40.781Z,6.79
2018-03-19T16:42:09.063Z,6.38
2018-03-19T16:44:37.306Z,6.82
2018-03-19T16:47:05.620Z,6.73
2018-03-19T16:49:33.832Z,6.67
2018-03-19T16:52:02.102Z,6.34
2018-03-19T16:54:30.373Z,6.71
2018-03-19T16:56:58.649Z,6.47
2018-03-19T16:59:26.931Z,6.54
2018-03-19T17:01:55.625Z,6.45
2018-03-19T17:04:23.869Z,6.40
2018-03-19T17:06:52.136Z,6.50
2018-03-19T17:09:20.422Z,6.66
2018-03-19T17:11:50.641Z,6.38
2018-03-19T17:14:18.927Z,6.44
2018-03-19T17:20:06.440Z,6.29
2018-03-19T17:22:35.707Z,5.98
2018-03-19T17:25:04.915Z,6.10
2018-03-19T17:27:53.741Z,6.05
2018-03-19T17:30:22.056Z,6.15
2018-03-19T17:32:50.288Z,6.03
2018-03-19T17:35:18.560Z,5.77
2018-03-19T17:37:46.837Z,5.74
2018-03-19T17:40:15.094Z,5.86
2018-03-19T17:42:43.365Z,5.85
2018-03-19T17:45:11.635Z,5.91
2018-03-19T17:47:39.899Z,6.02
2018-03-19T17:50:09.314Z,6.01
2018-03-19T17:52:37.577Z,6.05
2018-03-19T17:55:05.831Z,5.90
2018-03-19T17:57:34.102Z,5.77
2018-03-19T18:00:02.401Z,5.65
2018-03-19T18:02:30.674Z,5.80
2018-03-19T18:04:58.945Z,5.76
2018-03-19T18:07:27.208Z,5.85
2018-03-19T18:09:55.474Z,5.81
2018-03-19T18:12:23.737Z,5.86
2018-03-19T18:14:52.343Z,5.73
2018-03-19T18:17:20.611Z,5.23
2018-03-19T18:19:48.883Z,5.20
2018-03-19T18:22:17.603Z,5.26
2018-03-19T18:24:45.859Z,5.41
2018-03-19T18:27:14.175Z,5.44
2018-03-19T18:29:42.455Z,5.30
2018-03-19T18:32:10.722Z,5.06
2018-03-19T18:34:39.007Z,4.93
2018-03-19T18:37:07.275Z,4.68
2018-03-19T18:39:35.624Z,4.72
2018-03-19T18:42:03.834Z,4.68
2018-03-19T18:44:32.095Z,4.86
2018-03-19T18:47:00.363Z,5.00
2018-03-19T18:49:28.627Z,4.96
2018-03-19T18:51:56.911Z,4.97
2018-03-19T18:54:29.746Z,4.86
2018-03-19T18:56:58.035Z,4.64
2018-03-19T18:59:26.292Z,4.76
2018-03-19T19:01:54.560Z,4.75
2018-03-19T19:04:22.853Z,4.45
2018-03-19T19:06:51.116Z,4.53
2018-03-19T19:09:19.406Z,4.47
2018-03-19T19:11:47.659Z,4.40
2018-03-19T19:17:12.759Z,4.16
2018-03-19T19:19:41.018Z,4.14
2018-03-19T19:22:09.274Z,4.33
2018-03-19T19:24:37.604Z,4.14
2018-03-19T19:27:05.882Z,4.23
2018-03-19T19:29:58.279Z,3.78
2018-03-19T19:32:26.534Z,3.99
2018-03-19T19:34:54.818Z,4.08
2018-03-19T19:37:27.071Z,3.89
2018-03-19T19:39:55.394Z,4.15
2018-03-19T19:42:23.673Z,4.16
2018-03-19T19:44:51.928Z,4.07
2018-03-19T19:47:20.200Z,3.91
2018-03-19T19:49:48.494Z,4.01
2018-03-19T19:52:16.783Z,4.20
2018-03-19T19:54:45.059Z,4.45
2018-03-19T19:57:13.331Z,4.28
2018-03-19T19:59:41.594Z,4.49
2018-03-19T20:02:09.874Z,4.42
2018-03-19T20:04:38.147Z,4.05
2018-03-19T20:07:06.423Z,4.18
2018-03-19T20:09:34.678Z,4.30
2018-03-19T20:12:02.945Z,4.00
2018-03-19T20:14:48.204Z,4.10
2018-03-19T20:17:19.474Z,4.12
2018-03-19T20:19:48.106Z,3.93
2018-03-19T20:22:16.371Z,3.68
2018-03-19T20:24:49.054Z,3.50
2018-03-19T20:27:17.326Z,3.79
2018-03-19T20:29:45.594Z,3.21
2018-03-19T20:32:13.873Z,3.58
2018-03-19T20:34:42.140Z,3.64
2018-03-19T20:37:10.412Z,3.77
2018-03-19T20:39:38.678Z,3.63
2018-03-19T20:42:06.951Z,3.75
2018-03-19T20:44:35.461Z,3.82
2018-03-19T20:47:03.715Z,3.85
2018-03-19T20:49:32.262Z,3.69
2018-03-19T20:52:00.528Z,3.81
2018-03-19T20:54:29.792Z,3.65
2018-03-19T20:56:58.005Z,3.35
2018-03-19T20:59:26.272Z,3.02
2018-03-19T21:01:55.619Z,3.36
2018-03-19T21:04:24.060Z,3.07
2018-03-19T21:06:52.422Z,2.80
2018-03-19T21:09:22.681Z,2.94
2018-03-19T21:11:52.910Z,2.92
2018-03-19T21:14:25.440Z,2.74
2018-03-19T21:17:04.810Z,2.70
2018-03-19T21:19:35.058Z,2.95
2018-03-19T21:22:13.571Z,3.08
2018-03-19T21:24:41.840Z,2.99
2018-03-19T21:27:10.101Z,3.00
2018-03-19T21:29:39.295Z,3.11
2018-03-19T21:32:07.643Z,3.21
2018-03-19T21:34:35.942Z,3.19
2018-03-19T21:37:04.202Z,3.31
2018-03-19T21:39:32.498Z,3.41
2018-03-19T21:42:01.747Z,3.40
2018-03-19T21:44:34.458Z,3.34
2018-03-19T21:47:02.943Z,3.12
2018-03-19T21:49:31.205Z,3.01
2018-03-19T21:51:59.474Z,3.26
2018-03-19T21:54:27.735Z,3.33
2018-03-19T21:56:56.318Z,3.38
2018-03-19T21:59:25.618Z,3.31
2018-03-19T22:01:53.858Z,3.44
2018-03-19T22:04:22.131Z,3.19
2018-03-19T22:06:50.386Z,3.24
2018-03-19T22:09:18.663Z,3.27
2018-03-19T22:11:46.935Z,3.01
2018-03-19T22:14:15.205Z,3.15
2018-03-19T22:16:43.468Z,3.19
2018-03-19T22:19:11.734Z,3.00
2018-03-19T22:21:40.010Z,2.99
2018-03-19T22:24:25.988Z,2.96
2018-03-19T22:26:54.267Z,2.95
2018-03-19T22:29:22.559Z,2.74
2018-03-19T22:31:50.823Z,2.99
2018-03-19T22:34:19.109Z,2.16
2018-03-19T22:36:47.371Z,2.64
2018-03-19T22:39:15.652Z,2.87
2018-03-19T22:41:43.923Z,2.94
2018-03-19T22:44:12.190Z,3.01
2018-03-19T22:46:40.521Z,3.07
2018-03-19T22:49:08.791Z,3.08
2018-03-19T22:51:37.063Z,2.96
2018-03-19T22:54:05.331Z,2.83
2018-03-19T22:56:33.587Z,3.02
2018-03-19T22:59:01.879Z,2.99
2018-03-19T23:01:33.519Z,2.74
2018-03-19T23:04:01.803Z,2.74
2018-03-19T23:06:30.070Z,2.89
2018-03-19T23:08:58.587Z,2.92
2018-03-19T23:11:26.843Z,2.91
2018-03-19T23:13:55.094Z,2.91
2018-03-19T23:16:23.363Z,3.00
2018-03-19T23:18:51.630Z,2.74
2018-03-19T23:21:19.910Z,2.79
2018-03-19T23:23:48.178Z,2.91
2018-03-19T23:26:16.447Z,2.93
2018-03-19T23:28:44.735Z,2.92
2018-03-19T23:31:13.007Z,2.88
2018-03-19T23:33:41.314Z,2.73
2018-03-19T23:36:09.566Z,2.77
2018-03-19T23:38:37.837Z,2.80
2018-03-19T23:41:13.273Z,2.67
2018-03-19T23:43:41.544Z,2.72
2018-03-19T23:46:09.821Z,2.77
2018-03-19T23:48:38.084Z,2.68
2018-03-19T23:51:06.344Z,2.40
2018-03-19T23:53:34.612Z,2.51
2018-03-19T23:56:02.875Z,2.52
2018-03-19T23:58:31.391Z,2.50
